Time;durP1;ratioP1;P1;durP2;ratioP2;P2;SDS_P1;SDS_P2;PMS_P1;PMS_P2;Temp;Humidity;BMP_temperature;BMP_pressure;BME280_temperature;BME280_humidity;BME280_pressure;Samples;Min_cycle;Max_cycle;Signal;HPM_P1;HPM_P2
2022/01/27 00:03:06;;;;;;;1.93;1.83;;;5.60;99.90;;;;;;4979115;28;20492;-91
2022/01/27 00:05:31;;;;;;;0.80;0.70;;;5.60;99.90;;;;;;4965921;28;20438;-92
2022/01/27 00:10:47;;;;;;;0.80;0.60;;;5.60;99.90;;;;;;4974242;28;20221;-90
2022/01/27 00:13:15;;;;;;;1.83;1.43;;;5.60;99.90;;;;;;4958656;28;20829;-90
2022/01/27 00:15:48;;;;;;;4.30;1.10;;;5.70;99.90;;;;;;4967225;28;20492;-92
2022/01/27 00:18:17;;;;;;;0.80;0.70;;;5.70;99.90;;;;;;4955849;28;20477;-92
2022/01/27 00:20:45;;;;;;;1.10;1.00;;;5.70;99.90;;;;;;4958360;28;20433;-91
2022/01/27 00:23:10;;;;;;;0.80;0.70;;;5.70;99.90;;;;;;4959132;28;20465;-91
2022/01/27 00:25:36;;;;;;;0.80;0.70;;;5.70;99.90;;;;;;4972140;28;20473;-91
2022/01/27 00:28:02;;;;;;;0.80;0.73;;;5.70;99.90;;;;;;4976351;28;20459;-92
2022/01/27 00:30:28;;;;;;;2.00;1.90;;;5.70;99.90;;;;;;4975846;28;20241;-91
2022/01/27 00:32:54;;;;;;;0.80;0.80;;;5.70;99.90;;;;;;4974816;28;20441;-91
2022/01/27 00:35:19;;;;;;;0.80;0.70;;;5.70;99.90;;;;;;4981326;28;20530;-90
2022/01/27 00:37:45;;;;;;;0.80;0.70;;;5.80;99.90;;;;;;4980156;28;20556;-92
2022/01/27 00:40:12;;;;;;;1.30;0.90;;;5.80;99.90;;;;;;4980988;28;20201;-91
2022/01/27 00:42:41;;;;;;;0.80;0.70;;;5.80;99.90;;;;;;4982216;28;20251;-91
2022/01/27 00:45:08;;;;;;;1.43;1.33;;;5.80;99.90;;;;;;4972673;28;20958;-91
2022/01/27 00:47:34;;;;;;;2.03;1.83;;;5.80;99.90;;;;;;4975208;28;20556;-90
2022/01/27 00:49:59;;;;;;;0.80;0.80;;;5.90;99.90;;;;;;4948264;28;20567;-92
2022/01/27 00:52:35;;;;;;;1.10;1.00;;;5.90;99.90;;;;;;4978067;28;20217;-91
2022/01/27 00:55:01;;;;;;;2.70;1.43;;;5.90;99.90;;;;;;4979947;28;20181;-90
2022/01/27 01:00:03;;;;;;;0.80;0.70;;;5.90;99.90;;;;;;4973089;28;20192;-91
2022/01/27 01:02:48;;;;;;;0.80;0.70;;;6.00;99.90;;;;;;4974269;28;20577;-91
2022/01/27 01:05:40;;;;;;;1.53;1.43;;;6.00;99.90;;;;;;4971362;28;20452;-91
2022/01/27 01:09:06;;;;;;;0.80;0.80;;;6.00;99.90;;;;;;4963914;28;20536;-91
2022/01/27 01:15:47;;;;;;;2.10;1.57;;;6.00;99.90;;;;;;4975076;28;20477;-91
2022/01/27 01:18:31;;;;;;;0.80;0.70;;;5.90;99.90;;;;;;4977569;28;20174;-91
2022/01/27 01:34:22;;;;;;;3.03;2.83;;;5.90;99.90;;;;;;4974627;28;20833;-91
2022/01/27 01:37:03;;;;;;;2.90;1.60;;;6.00;99.90;;;;;;4975581;28;20439;-92
2022/01/27 01:39:37;;;;;;;2.13;2.03;;;6.00;99.90;;;;;;4974476;28;20591;-92
2022/01/27 01:42:08;;;;;;;0.80;0.80;;;5.90;99.90;;;;;;4971961;28;20435;-92
2022/01/27 01:44:34;;;;;;;0.80;0.70;;;6.00;99.90;;;;;;4971624;28;20440;-92
2022/01/27 01:47:00;;;;;;;0.80;0.70;;;6.00;99.90;;;;;;4969828;28;20507;-91
2022/01/27 01:49:27;;;;;;;4.50;1.37;;;6.00;99.90;;;;;;4981681;28;20475;-90
2022/01/27 01:51:57;;;;;;;4.40;1.33;;;6.00;99.90;;;;;;4979707;28;20437;-92
2022/01/27 01:54:23;;;;;;;0.80;0.70;;;6.00;99.90;;;;;;4970938;28;20453;-92
2022/01/27 01:56:49;;;;;;;1.47;1.10;;;6.00;99.90;;;;;;4973846;28;20441;-92
2022/01/27 01:59:14;;;;;;;0.97;0.90;;;6.00;99.90;;;;;;4956911;28;20185;-90
2022/01/27 02:01:41;;;;;;;1.23;1.13;;;6.00;99.90;;;;;;4957766;28;20440;-90
2022/01/27 02:04:09;;;;;;;1.13;1.03;;;6.00;99.90;;;;;;4974234;28;20198;-91
2022/01/27 02:06:44;;;;;;;0.80;0.63;;;6.00;99.90;;;;;;4974383;28;20528;-91
2022/01/27 02:20:11;;;;;;;2.07;1.97;;;5.90;99.90;;;;;;4974784;28;20496;-89
2022/01/27 02:22:36;;;;;;;2.23;2.13;;;5.90;99.90;;;;;;4972712;28;20456;-91
2022/01/27 02:25:04;;;;;;;0.83;0.80;;;5.90;99.90;;;;;;4967929;28;20441;-92
2022/01/27 02:27:29;;;;;;;0.80;0.70;;;5.90;99.90;;;;;;4972938;28;20324;-91
2022/01/27 02:29:55;;;;;;;1.20;1.00;;;5.90;99.90;;;;;;4976324;28;20574;-91
2022/01/27 02:32:22;;;;;;;0.93;0.93;;;5.80;99.90;;;;;;4961070;28;20228;-91
2022/01/27 02:34:48;;;;;;;0.80;0.70;;;5.80;99.90;;;;;;4970416;28;20689;-91
2022/01/27 02:37:13;;;;;;;1.00;1.00;;;5.70;99.90;;;;;;4966097;28;20481;-91
2022/01/27 02:39:39;;;;;;;0.80;0.70;;;5.70;99.90;;;;;;4983192;28;20192;-92
2022/01/27 02:42:06;;;;;;;0.83;0.83;;;5.60;99.90;;;;;;4972989;28;20252;-91
2022/01/27 02:44:31;;;;;;;0.70;0.60;;;5.60;99.90;;;;;;4973355;28;20198;-92
2022/01/27 02:46:58;;;;;;;2.80;1.67;;;5.50;99.90;;;;;;4970917;28;20792;-90
2022/01/27 02:49:24;;;;;;;0.90;0.90;;;5.40;99.90;;;;;;4959107;28;20217;-91
2022/01/27 02:51:50;;;;;;;0.80;0.70;;;5.40;99.90;;;;;;4952151;28;20868;-91
2022/01/27 02:54:15;;;;;;;1.43;1.33;;;5.40;99.90;;;;;;4978286;28;20449;-92
2022/01/27 02:56:46;;;;;;;0.80;0.70;;;5.40;99.90;;;;;;4981948;28;20647;-91
2022/01/27 02:59:12;;;;;;;1.70;1.60;;;5.30;99.90;;;;;;4973753;28;20197;-90
2022/01/27 03:01:38;;;;;;;0.80;0.67;;;5.30;99.90;;;;;;4975633;28;20437;-90
2022/01/27 03:04:04;;;;;;;0.80;0.70;;;5.30;99.90;;;;;;4974154;28;20506;-90
2022/01/27 03:06:29;;;;;;;1.83;1.73;;;5.30;99.90;;;;;;4977586;28;20272;-89
2022/01/27 03:08:55;;;;;;;0.77;0.60;;;5.30;99.90;;;;;;4972781;28;20268;-88
2022/01/27 03:11:33;;;;;;;0.80;0.70;;;5.30;99.90;;;;;;4966951;28;20570;-90
2022/01/27 03:13:59;;;;;;;2.40;2.20;;;5.30;99.90;;;;;;4972248;28;20693;-90
2022/01/27 03:16:25;;;;;;;0.73;0.60;;;5.30;99.90;;;;;;4968957;28;20433;-89
2022/01/27 03:18:50;;;;;;;0.70;0.70;;;5.20;99.90;;;;;;4968708;28;20649;-88
2022/01/27 03:21:16;;;;;;;0.80;0.80;;;5.30;99.90;;;;;;4977924;28;20236;-88
2022/01/27 03:23:42;;;;;;;0.80;0.70;;;5.20;99.90;;;;;;4969522;28;20272;-88
2022/01/27 03:26:07;;;;;;;0.77;0.70;;;5.20;99.90;;;;;;4970242;28;20434;-88
2022/01/27 03:28:33;;;;;;;0.80;0.70;;;5.20;99.90;;;;;;4974048;28;20224;-89
2022/01/27 03:30:58;;;;;;;0.80;0.80;;;5.20;99.90;;;;;;4978132;28;20248;-87
2022/01/27 03:33:24;;;;;;;1.50;1.40;;;5.20;99.90;;;;;;4971076;28;20217;-88
2022/01/27 03:35:50;;;;;;;0.80;0.70;;;5.30;99.90;;;;;;4966448;28;20190;-89
2022/01/27 03:38:15;;;;;;;0.70;0.60;;;5.30;99.90;;;;;;4966205;28;20687;-90
2022/01/27 03:40:41;;;;;;;1.27;1.17;;;5.30;99.90;;;;;;4956515;28;20226;-89
2022/01/27 03:43:09;;;;;;;1.00;0.90;;;5.30;99.90;;;;;;4968435;28;20186;-88
2022/01/27 03:45:35;;;;;;;0.80;0.70;;;5.30;99.90;;;;;;4976470;28;20638;-89
2022/01/27 03:48:01;;;;;;;0.97;0.97;;;5.30;99.90;;;;;;4972386;28;20556;-89
2022/01/27 03:50:27;;;;;;;1.20;1.10;;;5.30;99.90;;;;;;4961450;28;20484;-88
2022/01/27 03:52:52;;;;;;;1.03;0.97;;;5.30;99.90;;;;;;4970663;28;20857;-89
2022/01/27 03:55:18;;;;;;;0.80;0.70;;;5.30;99.90;;;;;;4968443;28;21729;-88
2022/01/27 03:57:44;;;;;;;0.80;0.70;;;5.40;99.90;;;;;;4969817;28;20195;-89
2022/01/27 04:00:11;;;;;;;1.40;1.30;;;5.40;99.90;;;;;;4969173;28;20221;-88
2022/01/27 04:02:40;;;;;;;0.80;0.70;;;5.30;99.90;;;;;;4969021;28;20195;-88
2022/01/27 04:05:07;;;;;;;0.77;0.70;;;5.40;99.90;;;;;;4976100;28;20425;-89
2022/01/27 04:07:32;;;;;;;0.80;0.70;;;5.40;99.90;;;;;;4950901;28;20512;-89
2022/01/27 04:09:58;;;;;;;0.80;0.77;;;5.30;99.90;;;;;;4965299;28;20592;-89
2022/01/27 04:12:23;;;;;;;1.73;1.63;;;5.30;99.90;;;;;;4966928;28;20278;-88
2022/01/27 04:14:49;;;;;;;0.80;0.70;;;5.30;99.90;;;;;;4968327;28;20191;-88
2022/01/27 04:17:15;;;;;;;0.80;0.80;;;5.30;99.90;;;;;;4960262;28;20674;-88
2022/01/27 04:19:40;;;;;;;1.00;0.90;;;5.30;99.90;;;;;;4978249;28;20187;-88
2022/01/27 04:22:06;;;;;;;0.80;0.60;;;5.30;99.90;;;;;;4975288;28;20561;-88
2022/01/27 04:24:32;;;;;;;0.70;0.70;;;5.30;99.90;;;;;;4952879;28;20201;-87
2022/01/27 04:27:05;;;;;;;0.80;0.70;;;5.30;99.90;;;;;;4961348;28;20448;-86
2022/01/27 04:29:34;;;;;;;1.00;0.90;;;5.30;99.90;;;;;;4971962;28;20221;-86
2022/01/27 04:32:01;;;;;;;1.00;1.00;;;5.30;99.90;;;;;;4976325;28;21013;-86
2022/01/27 04:34:28;;;;;;;9.13;1.93;;;5.30;99.90;;;;;;4966113;28;21040;-84
2022/01/27 04:36:55;;;;;;;0.80;0.80;;;5.30;99.90;;;;;;4949072;28;21226;-85
2022/01/27 04:39:29;;;;;;;0.80;0.70;;;5.30;99.90;;;;;;4974675;28;20940;-85
2022/01/27 04:42:02;;;;;;;0.80;0.70;;;5.20;99.90;;;;;;4974285;28;20477;-87
2022/01/27 04:44:36;;;;;;;0.80;0.70;;;5.20;99.90;;;;;;4949982;28;20442;-89
2022/01/27 04:47:11;;;;;;;1.33;1.23;;;5.20;99.90;;;;;;4964133;28;20445;-87
2022/01/27 04:49:37;;;;;;;0.83;0.77;;;5.20;99.90;;;;;;4974914;28;20491;-87
2022/01/27 04:52:03;;;;;;;0.77;0.70;;;5.20;99.90;;;;;;4968524;28;20513;-86
2022/01/27 04:54:47;;;;;;;0.80;0.70;;;5.20;99.90;;;;;;4970391;28;20198;-87
2022/01/27 04:57:12;;;;;;;0.80;0.80;;;5.20;99.90;;;;;;4957240;28;20980;-87
2022/01/27 04:59:41;;;;;;;0.90;0.90;;;5.20;99.90;;;;;;4961387;28;20477;-86
2022/01/27 05:02:15;;;;;;;0.80;0.70;;;5.20;99.90;;;;;;4962937;28;20185;-85
2022/01/27 05:04:46;;;;;;;0.80;0.70;;;5.20;99.90;;;;;;4980000;28;20440;-86
2022/01/27 05:07:11;;;;;;;0.73;0.63;;;5.20;99.90;;;;;;4973713;28;20445;-86
2022/01/27 05:09:38;;;;;;;4.37;3.03;;;5.20;99.90;;;;;;4967693;28;20488;-85
2022/01/27 05:12:15;;;;;;;1.07;0.90;;;5.20;99.90;;;;;;4951346;28;20650;-85
2022/01/27 05:14:40;;;;;;;1.20;1.10;;;5.20;99.90;;;;;;4971311;28;20494;-87
2022/01/27 05:17:06;;;;;;;1.57;1.47;;;5.20;99.90;;;;;;4981638;28;20460;-87
2022/01/27 05:19:31;;;;;;;0.80;0.70;;;5.20;99.90;;;;;;4959637;28;20189;-85
2022/01/27 05:21:57;;;;;;;0.90;0.90;;;5.20;99.90;;;;;;4969607;28;20233;-86
2022/01/27 05:24:23;;;;;;;0.80;0.70;;;5.30;99.90;;;;;;4971317;28;20659;-87
2022/01/27 05:26:48;;;;;;;0.80;0.80;;;5.30;99.90;;;;;;4971423;28;20191;-86
2022/01/27 05:29:14;;;;;;;0.80;0.70;;;5.20;99.90;;;;;;4967368;28;20229;-85
2022/01/27 05:31:39;;;;;;;1.90;1.30;;;5.30;99.90;;;;;;4976690;28;20677;-86
2022/01/27 05:34:05;;;;;;;0.80;0.70;;;5.20;99.90;;;;;;4972744;28;20212;-84
2022/01/27 05:36:33;;;;;;;0.80;0.63;;;5.30;99.90;;;;;;4971113;28;20560;-86
2022/01/27 05:39:00;;;;;;;2.00;1.00;;;5.30;99.90;;;;;;4953146;28;20973;-85
2022/01/27 05:41:25;;;;;;;3.03;2.83;;;5.30;99.90;;;;;;4970367;28;20694;-85
2022/01/27 05:43:51;;;;;;;1.57;1.10;;;5.30;99.90;;;;;;4970955;28;20544;-86
2022/01/27 05:46:16;;;;;;;1.73;1.63;;;5.30;99.90;;;;;;4971154;28;20556;-85
2022/01/27 05:48:42;;;;;;;0.77;0.70;;;5.30;99.90;;;;;;4971584;28;20283;-85
2022/01/27 05:51:07;;;;;;;0.80;0.70;;;5.30;99.90;;;;;;4971623;28;20312;-85
2022/01/27 05:53:35;;;;;;;0.73;0.60;;;5.40;99.90;;;;;;4972156;28;20194;-85
2022/01/27 05:56:01;;;;;;;0.80;0.80;;;5.30;99.90;;;;;;4969792;28;20197;-86
2022/01/27 05:58:27;;;;;;;1.27;1.17;;;5.40;99.90;;;;;;4960411;28;20445;-85
2022/01/27 06:00:52;;;;;;;0.80;0.70;;;5.30;99.90;;;;;;4969892;28;20186;-88
2022/01/27 06:03:18;;;;;;;5.30;2.07;;;5.40;99.90;;;;;;4973963;28;20612;-86
2022/01/27 06:05:44;;;;;;;0.90;0.90;;;5.40;99.90;;;;;;4968834;28;20195;-87
2022/01/27 06:08:09;;;;;;;0.90;0.80;;;5.40;99.90;;;;;;4976491;28;20189;-86
2022/01/27 06:10:35;;;;;;;4.00;1.90;;;5.50;99.90;;;;;;4973594;28;20281;-85
2022/01/27 06:13:00;;;;;;;1.20;1.10;;;5.50;99.90;;;;;;4967272;28;20202;-85
2022/01/27 06:15:27;;;;;;;0.80;0.70;;;5.40;99.90;;;;;;4975816;28;20477;-86
2022/01/27 06:17:53;;;;;;;0.80;0.70;;;5.50;99.90;;;;;;4968690;28;20228;-86
2022/01/27 06:20:19;;;;;;;2.03;1.37;;;5.50;99.90;;;;;;4966416;28;20442;-86
2022/01/27 06:22:45;;;;;;;1.67;1.57;;;5.50;99.90;;;;;;4953304;28;20463;-86
2022/01/27 06:25:14;;;;;;;1.23;1.13;;;5.50;99.90;;;;;;4971390;28;20437;-86
2022/01/27 06:27:39;;;;;;;0.90;0.80;;;5.50;99.90;;;;;;4986030;28;20539;-87
2022/01/27 06:30:07;;;;;;;4.40;1.23;;;5.50;99.90;;;;;;4969460;28;21060;-86
2022/01/27 06:32:33;;;;;;;1.53;1.43;;;5.50;99.90;;;;;;4949820;28;20712;-85
2022/01/27 06:34:59;;;;;;;0.80;0.70;;;5.60;99.90;;;;;;4965153;28;20484;-85
2022/01/27 06:37:24;;;;;;;1.73;1.63;;;5.60;99.90;;;;;;4966361;28;20872;-86
2022/01/27 06:39:52;;;;;;;0.93;0.90;;;5.60;99.90;;;;;;4969423;28;20205;-84
2022/01/27 06:42:18;;;;;;;0.77;0.60;;;5.60;99.90;;;;;;4970401;28;20178;-85
2022/01/27 06:44:44;;;;;;;1.23;1.13;;;5.60;99.90;;;;;;4967450;28;20507;-86
2022/01/27 06:47:09;;;;;;;0.80;0.70;;;5.60;99.90;;;;;;4971290;28;21314;-86
2022/01/27 06:49:35;;;;;;;0.83;0.80;;;5.60;99.90;;;;;;4970056;28;20253;-85
2022/01/27 06:52:00;;;;;;;0.80;0.80;;;5.70;99.90;;;;;;4969009;28;20190;-86
2022/01/27 06:54:26;;;;;;;0.80;0.70;;;5.70;99.90;;;;;;4946344;28;20556;-85
2022/01/27 06:56:51;;;;;;;1.20;1.10;;;5.70;99.90;;;;;;4969473;28;20233;-83
2022/01/27 06:59:17;;;;;;;1.30;1.20;;;5.70;99.90;;;;;;4974507;28;20214;-85
2022/01/27 07:01:42;;;;;;;0.80;0.80;;;5.70;99.90;;;;;;4966837;28;20190;-85
2022/01/27 07:04:08;;;;;;;0.80;0.70;;;5.70;99.90;;;;;;4969595;28;20198;-85
2022/01/27 07:06:35;;;;;;;1.50;1.13;;;5.80;99.90;;;;;;4950679;28;20204;-84
2022/01/27 07:09:01;;;;;;;0.80;0.70;;;5.80;99.90;;;;;;4977079;28;20738;-86
2022/01/27 07:11:26;;;;;;;0.83;0.83;;;5.80;99.90;;;;;;4972854;28;20453;-86
2022/01/27 07:13:52;;;;;;;1.10;1.00;;;5.90;99.90;;;;;;4970321;28;20444;-86
2022/01/27 07:16:17;;;;;;;0.80;0.80;;;5.90;99.90;;;;;;4967684;28;20178;-86
2022/01/27 07:18:43;;;;;;;0.80;0.77;;;5.90;99.90;;;;;;4968137;28;20268;-87
2022/01/27 07:21:09;;;;;;;0.80;0.70;;;5.90;99.90;;;;;;4968779;28;20198;-85
2022/01/27 07:23:34;;;;;;;1.60;1.50;;;5.90;99.90;;;;;;4969522;28;20269;-85
2022/01/27 07:26:00;;;;;;;0.80;0.70;;;6.00;99.90;;;;;;4968955;28;20531;-84
2022/01/27 07:28:26;;;;;;;1.33;1.23;;;6.00;99.90;;;;;;4974944;28;20185;-84
2022/01/27 07:30:51;;;;;;;4.70;1.50;;;6.00;99.90;;;;;;4969799;28;20234;-87
2022/01/27 07:33:17;;;;;;;0.80;0.70;;;6.00;99.90;;;;;;4952155;28;20183;-85
2022/01/27 07:35:42;;;;;;;0.80;0.80;;;6.00;99.90;;;;;;4966596;28;20626;-86
2022/01/27 07:38:08;;;;;;;1.40;1.30;;;6.00;99.90;;;;;;4968332;28;20189;-86
2022/01/27 07:40:34;;;;;;;0.70;0.60;;;6.10;99.90;;;;;;4947418;28;20256;-83
2022/01/27 07:43:01;;;;;;;0.80;0.70;;;6.10;99.90;;;;;;4968014;28;20233;-83
2022/01/27 07:45:26;;;;;;;1.40;1.30;;;6.10;99.90;;;;;;4975410;28;20453;-85
2022/01/27 07:47:52;;;;;;;0.80;0.67;;;6.10;99.90;;;;;;4946033;28;20456;-84
2022/01/27 07:50:17;;;;;;;0.80;0.80;;;6.10;99.90;;;;;;4965793;28;20263;-84
2022/01/27 07:52:43;;;;;;;1.00;0.90;;;6.10;99.90;;;;;;4973407;28;20200;-86
2022/01/27 07:55:10;;;;;;;0.70;0.60;;;6.10;99.90;;;;;;4979441;28;20200;-87
2022/01/27 07:57:36;;;;;;;0.80;0.70;;;6.10;99.90;;;;;;4969647;28;20193;-84
2022/01/27 08:00:02;;;;;;;1.00;0.90;;;6.10;99.90;;;;;;4956890;28;20457;-84
2022/01/27 08:02:28;;;;;;;1.40;1.30;;;6.10;99.90;;;;;;4974186;28;20440;-85
2022/01/27 08:04:53;;;;;;;0.80;0.70;;;6.10;99.90;;;;;;4955716;28;20448;-84
2022/01/27 08:07:19;;;;;;;2.13;2.03;;;6.20;99.90;;;;;;4963558;28;20595;-85
2022/01/27 08:09:44;;;;;;;2.53;2.33;;;6.20;99.90;;;;;;4968006;28;20642;-85
2022/01/27 08:12:10;;;;;;;2.00;1.90;;;6.20;99.90;;;;;;4969537;28;20189;-85
2022/01/27 08:14:35;;;;;;;0.80;0.70;;;6.20;99.90;;;;;;4962487;28;20655;-85
2022/01/27 08:17:01;;;;;;;0.80;0.70;;;6.30;99.90;;;;;;4973734;28;20201;-85
2022/01/27 08:19:27;;;;;;;0.80;0.70;;;6.30;99.90;;;;;;4973493;28;20205;-85
2022/01/27 08:21:52;;;;;;;0.80;0.70;;;6.40;99.90;;;;;;4973591;28;20193;-86
2022/01/27 08:24:18;;;;;;;2.30;2.20;;;6.40;99.90;;;;;;4972765;28;20674;-86
2022/01/27 08:26:46;;;;;;;1.20;1.10;;;6.40;99.90;;;;;;4972929;28;20196;-86
2022/01/27 08:29:27;;;;;;;1.13;1.03;;;6.50;99.90;;;;;;4968790;28;20485;-86
2022/01/27 08:34:30;;;;;;;0.80;0.70;;;6.60;99.90;;;;;;4973428;28;20421;-86
2022/01/27 08:36:58;;;;;;;0.80;0.60;;;6.60;99.90;;;;;;4966583;28;20463;-86
2022/01/27 08:39:25;;;;;;;1.20;1.10;;;6.70;99.90;;;;;;4951670;28;20519;-86
2022/01/27 08:41:51;;;;;;;0.80;0.70;;;6.70;99.90;;;;;;4966830;28;22346;-86
2022/01/27 08:44:16;;;;;;;0.80;0.70;;;6.70;99.90;;;;;;4971498;28;20520;-86
2022/01/27 08:46:42;;;;;;;0.80;0.80;;;6.70;99.90;;;;;;4968987;28;21076;-87
2022/01/27 08:49:08;;;;;;;0.80;0.70;;;6.70;99.90;;;;;;4958116;28;20218;-86
2022/01/27 08:51:34;;;;;;;0.70;0.60;;;6.80;99.90;;;;;;4971633;28;20182;-87
2022/01/27 08:53:59;;;;;;;0.80;0.70;;;6.80;99.90;;;;;;4969016;28;20490;-86
2022/01/27 08:56:25;;;;;;;1.77;1.00;;;6.80;99.90;;;;;;4966940;28;20181;-87
2022/01/27 08:58:50;;;;;;;0.70;0.60;;;6.80;99.90;;;;;;4969496;28;20605;-87
2022/01/27 09:01:16;;;;;;;0.80;0.60;;;6.80;99.90;;;;;;4974063;28;20200;-87
2022/01/27 09:03:43;;;;;;;1.53;1.37;;;6.90;99.90;;;;;;4969624;28;20194;-87
2022/01/27 09:06:09;;;;;;;2.23;1.73;;;6.90;99.90;;;;;;4972280;28;20293;-87
2022/01/27 09:08:34;;;;;;;1.63;1.53;;;6.90;99.90;;;;;;4973416;28;20559;-87
2022/01/27 09:11:00;;;;;;;1.00;0.90;;;6.90;99.90;;;;;;4945786;28;20540;-86
2022/01/27 09:13:25;;;;;;;1.37;1.27;;;7.00;99.90;;;;;;4968901;28;20637;-88
2022/01/27 09:15:51;;;;;;;1.13;1.03;;;7.10;99.90;;;;;;4967575;28;20205;-88
2022/01/27 09:18:17;;;;;;;0.80;0.60;;;7.10;99.90;;;;;;4969466;28;20726;-89
2022/01/27 09:20:44;;;;;;;0.87;0.80;;;7.10;99.90;;;;;;4950101;28;20194;-88
2022/01/27 09:23:14;;;;;;;0.80;0.70;;;7.10;99.90;;;;;;4964895;28;20434;-89
2022/01/27 09:25:45;;;;;;;1.20;0.70;;;7.10;99.90;;;;;;4956947;28;20434;-90
2022/01/27 09:28:12;;;;;;;0.90;0.80;;;7.10;99.90;;;;;;4970222;28;20818;-88
2022/01/27 09:30:39;;;;;;;1.00;0.90;;;7.20;99.90;;;;;;4971409;28;20521;-87
2022/01/27 09:33:05;;;;;;;0.80;0.60;;;7.20;99.90;;;;;;4961984;28;21094;-88
2022/01/27 09:35:31;;;;;;;0.80;0.70;;;7.20;99.90;;;;;;4957932;28;20957;-84
2022/01/27 09:37:58;;;;;;;0.90;0.90;;;7.30;99.90;;;;;;4967828;28;20718;-84
2022/01/27 09:40:25;;;;;;;1.20;1.10;;;7.30;99.90;;;;;;4950707;28;20956;-83
2022/01/27 09:42:53;;;;;;;0.80;0.70;;;7.40;99.90;;;;;;4967855;28;20453;-83
2022/01/27 09:45:20;;;;;;;0.90;0.80;;;7.40;99.90;;;;;;4970058;28;20456;-84
2022/01/27 09:47:54;;;;;;;1.53;1.43;;;7.40;99.90;;;;;;4955529;28;20457;-83
2022/01/27 09:50:27;;;;;;;0.80;0.70;;;7.40;99.90;;;;;;4955961;28;20487;-83
2022/01/27 09:52:53;;;;;;;0.80;0.60;;;7.40;99.90;;;;;;4969661;28;20441;-83
2022/01/27 09:55:19;;;;;;;0.73;0.60;;;7.40;99.90;;;;;;4949884;28;20457;-83
2022/01/27 09:57:46;;;;;;;0.80;0.70;;;7.50;99.90;;;;;;4967108;28;20455;-83
2022/01/27 10:00:13;;;;;;;1.30;1.13;;;7.50;99.90;;;;;;4962680;28;20448;-83
2022/01/27 10:02:39;;;;;;;0.80;0.60;;;7.50;99.90;;;;;;4954158;28;20435;-85
2022/01/27 10:05:07;;;;;;;0.80;0.70;;;7.50;99.90;;;;;;4951074;28;20532;-85
2022/01/27 10:07:39;;;;;;;0.80;0.67;;;7.60;99.90;;;;;;4969953;28;20975;-84
2022/01/27 10:10:12;;;;;;;0.80;0.60;;;7.50;99.90;;;;;;4977443;28;21308;-85
2022/01/27 10:12:46;;;;;;;0.80;0.60;;;7.60;99.90;;;;;;4971312;28;20525;-82
2022/01/27 10:15:18;;;;;;;1.57;1.33;;;7.60;99.90;;;;;;4972617;28;20484;-82
2022/01/27 10:18:25;;;;;;;0.80;0.80;;;7.50;99.90;;;;;;4963317;28;20445;-82
2022/01/27 10:21:04;;;;;;;0.80;0.70;;;7.70;99.90;;;;;;4906526;29;20592;-83
2022/01/27 10:23:33;;;;;;;0.80;0.60;;;7.90;99.90;;;;;;4879484;29;20448;-83
2022/01/27 10:26:25;;;;;;;0.80;0.60;;;8.00;99.90;;;;;;4929964;28;20441;-83
2022/01/27 10:29:04;;;;;;;0.90;0.80;;;8.10;99.90;;;;;;4977386;28;20468;-83
2022/01/27 10:31:30;;;;;;;1.00;0.87;;;8.10;99.90;;;;;;4972112;28;20996;-83
2022/01/27 10:33:59;;;;;;;1.20;0.70;;;8.20;99.90;;;;;;4952937;28;20462;-84
2022/01/27 10:36:28;;;;;;;0.80;0.60;;;8.30;99.90;;;;;;4968938;28;20217;-84
2022/01/27 10:39:18;;;;;;;0.80;0.60;;;8.30;99.90;;;;;;4970582;28;20801;-84
2022/01/27 10:42:06;;;;;;;1.53;1.20;;;8.30;99.90;;;;;;4934952;28;20449;-85
2022/01/27 10:44:42;;;;;;;0.80;0.60;;;8.20;99.90;;;;;;4970835;28;20431;-84
2022/01/27 10:47:15;;;;;;;0.80;0.60;;;8.20;99.90;;;;;;4953542;28;20436;-84
2022/01/27 10:49:46;;;;;;;0.80;0.60;;;8.10;99.90;;;;;;4971896;28;20489;-84
2022/01/27 10:52:16;;;;;;;0.80;0.60;;;8.10;99.90;;;;;;4971645;28;20445;-84
2022/01/27 10:54:48;;;;;;;0.80;0.60;;;8.10;99.90;;;;;;4970504;28;20477;-84
2022/01/27 10:57:14;;;;;;;0.80;0.70;;;8.00;99.90;;;;;;4967686;28;20441;-84
2022/01/27 10:59:41;;;;;;;1.43;1.33;;;8.10;99.90;;;;;;4971225;28;20435;-84
2022/01/27 11:02:12;;;;;;;0.80;0.70;;;8.10;99.90;;;;;;4978080;28;20533;-84
2022/01/27 11:04:43;;;;;;;0.80;0.60;;;8.10;99.90;;;;;;4974747;28;20429;-85
2022/01/27 11:07:12;;;;;;;0.80;0.60;;;8.00;99.90;;;;;;4971098;28;20448;-84
2022/01/27 11:09:41;;;;;;;0.80;0.60;;;8.10;99.90;;;;;;4968792;28;20489;-84
2022/01/27 11:12:13;;;;;;;0.97;0.83;;;8.10;99.90;;;;;;4970194;28;20451;-84
2022/01/27 11:14:40;;;;;;;0.80;0.60;;;8.10;99.90;;;;;;4975632;28;20457;-84
2022/01/27 11:17:15;;;;;;;0.80;0.70;;;8.00;99.90;;;;;;4970650;28;21229;-84
2022/01/27 11:27:28;;;;;;;0.80;0.70;;;8.00;99.90;;;;;;4963382;28;20973;-87
2022/01/27 11:30:00;;;;;;;0.80;0.70;;;8.00;99.90;;;;;;4975840;28;20544;-87
2022/01/27 11:32:40;;;;;;;0.80;0.70;;;8.00;99.90;;;;;;4971627;28;20668;-86
2022/01/27 11:35:17;;;;;;;1.17;1.07;;;8.10;99.90;;;;;;4964898;28;20527;-85
2022/01/27 11:37:52;;;;;;;0.80;0.60;;;8.20;99.90;;;;;;4964775;28;20440;-86
2022/01/27 11:40:20;;;;;;;0.80;0.67;;;8.20;99.90;;;;;;4971300;28;20446;-82
2022/01/27 11:42:54;;;;;;;0.80;0.80;;;8.20;99.90;;;;;;4954004;28;20453;-82
2022/01/27 11:45:23;;;;;;;0.80;0.60;;;8.30;99.90;;;;;;4966528;28;21028;-84
2022/01/27 11:48:01;;;;;;;0.80;0.60;;;8.30;99.90;;;;;;4974115;28;20461;-84
2022/01/27 11:50:50;;;;;;;0.80;0.70;;;8.50;99.90;;;;;;4965073;28;20491;-86
2022/01/27 11:53:28;;;;;;;0.80;0.70;;;8.50;99.90;;;;;;4974526;28;20965;-83
2022/01/27 11:55:53;;;;;;;1.47;1.23;;;8.70;99.90;;;;;;4975769;28;20445;-84
2022/01/27 11:58:24;;;;;;;0.80;0.60;;;8.60;99.90;;;;;;4978201;28;20498;-84
2022/01/27 12:01:14;;;;;;;0.80;0.60;;;8.50;99.90;;;;;;4975033;28;20185;-84
2022/01/27 12:04:00;;;;;;;0.80;0.60;;;8.40;99.90;;;;;;4976140;28;20499;-83
2022/01/27 12:06:26;;;;;;;0.97;0.87;;;8.30;99.90;;;;;;4974914;28;20457;-84
2022/01/27 12:09:20;;;;;;;0.80;0.70;;;8.30;99.90;;;;;;4957968;28;20479;-84
2022/01/27 12:11:49;;;;;;;0.80;0.60;;;8.40;99.90;;;;;;4972413;28;20193;-84
2022/01/27 12:14:18;;;;;;;2.27;1.63;;;8.50;99.90;;;;;;4981069;28;20445;-84
2022/01/27 12:17:04;;;;;;;0.80;0.60;;;8.30;99.90;;;;;;4972682;28;20432;-84
2022/01/27 12:19:49;;;;;;;0.80;0.70;;;8.20;99.90;;;;;;4962629;28;21153;-85
2022/01/27 12:22:16;;;;;;;0.90;0.63;;;8.10;99.90;;;;;;4975374;28;20527;-85
2022/01/27 12:24:59;;;;;;;0.90;0.70;;;8.10;99.90;;;;;;4955591;28;20509;-84
2022/01/27 12:27:27;;;;;;;0.87;0.63;;;8.20;99.90;;;;;;4978640;28;20807;-85
2022/01/27 12:29:56;;;;;;;0.90;0.60;;;8.40;99.90;;;;;;4974549;28;20488;-85
2022/01/27 12:32:26;;;;;;;0.80;0.60;;;8.40;99.90;;;;;;4979284;28;20949;-84
2022/01/27 12:35:07;;;;;;;0.90;0.60;;;8.80;99.90;;;;;;4952976;28;20581;-84
2022/01/27 12:37:41;;;;;;;0.87;0.60;;;8.90;99.90;;;;;;4954808;28;20796;-84
2022/01/27 12:40:33;;;;;;;0.80;0.60;;;9.10;99.90;;;;;;4950561;28;20438;-85
2022/01/27 12:43:11;;;;;;;0.80;0.60;;;9.00;99.90;;;;;;4968742;28;21035;-85
2022/01/27 12:45:37;;;;;;;0.87;0.60;;;9.50;99.90;;;;;;4971131;28;20995;-85
2022/01/27 12:48:13;;;;;;;0.90;0.60;;;9.70;99.90;;;;;;4951777;28;20477;-85
2022/01/27 12:50:38;;;;;;;0.83;0.60;;;10.10;99.90;;;;;;4949939;28;20989;-86
2022/01/27 12:53:11;;;;;;;0.80;0.60;;;10.20;99.90;;;;;;4973885;28;20448;-86
2022/01/27 12:55:42;;;;;;;0.80;0.60;;;9.70;99.90;;;;;;4963400;28;20190;-86
2022/01/27 12:58:11;;;;;;;0.90;0.60;;;9.40;99.90;;;;;;4957280;28;20584;-85
2022/01/27 13:00:39;;;;;;;0.90;0.60;;;9.70;99.90;;;;;;4961396;28;22826;-85
2022/01/27 13:03:05;;;;;;;0.90;0.60;;;9.80;99.90;;;;;;4954761;28;20843;-85
2022/01/27 13:05:44;;;;;;;0.80;0.60;;;9.50;99.90;;;;;;4954078;28;20447;-85
2022/01/27 13:08:15;;;;;;;0.90;0.60;;;10.10;99.90;;;;;;4965680;28;20237;-85
2022/01/27 13:10:51;;;;;;;0.90;0.80;;;9.50;99.90;;;;;;4972313;28;20469;-85
2022/01/27 13:13:23;;;;;;;0.90;0.70;;;9.40;99.90;;;;;;4953042;28;20445;-83
2022/01/27 13:16:16;;;;;;;0.80;0.57;;;9.10;99.90;;;;;;4947858;28;20523;-84
2022/01/27 13:19:00;;;;;;;1.10;1.00;;;8.80;99.90;;;;;;4982003;28;20440;-84
2022/01/27 13:21:30;;;;;;;0.90;0.60;;;8.90;99.90;;;;;;4971554;28;20436;-86
2022/01/27 13:24:11;;;;;;;0.80;0.60;;;9.20;99.90;;;;;;4955909;28;20449;-83
2022/01/27 13:26:37;;;;;;;0.80;0.60;;;10.10;99.90;;;;;;4976979;28;21019;-85
2022/01/27 13:29:03;;;;;;;0.80;0.60;;;9.80;99.90;;;;;;4960363;28;20482;-79
2022/01/27 13:31:29;;;;;;;0.90;0.80;;;10.00;99.90;;;;;;4962168;28;20234;-83
2022/01/27 13:34:00;;;;;;;0.90;0.70;;;9.50;99.90;;;;;;4948300;28;20453;-82
2022/01/27 13:36:25;;;;;;;1.53;1.43;;;8.90;99.90;;;;;;4963218;28;20186;-85
2022/01/27 13:39:14;;;;;;;0.90;0.60;;;8.90;99.90;;;;;;4972555;28;20999;-86
2022/01/27 13:41:42;;;;;;;0.90;0.60;;;8.90;99.90;;;;;;4971195;28;20690;-85
2022/01/27 13:44:12;;;;;;;0.80;0.60;;;8.60;99.90;;;;;;4957428;28;20473;-85
2022/01/27 13:46:50;;;;;;;0.80;0.60;;;8.40;99.90;;;;;;4975096;28;20796;-89
2022/01/27 13:49:26;;;;;;;0.90;0.60;;;8.20;99.90;;;;;;4948637;28;20479;-88
2022/01/27 13:52:01;;;;;;;0.80;0.60;;;8.10;99.90;;;;;;4951142;28;20472;-86
2022/01/27 13:54:29;;;;;;;0.80;0.60;;;8.00;99.90;;;;;;4964955;28;20467;-86